sensor_id;sensor_type;location;lat;lon;timestamp;pressure;altitude;pressure_sealevel;temperature;humidity
26719;BME280;14326;50.794;6.060;2024-02-21T00:01:51;57030.06;;;-142.25;100.00
26719;BME280;14326;50.794;6.060;2024-02-21T00:04:17;57030.06;;;-142.25;100.00
26719;BME280;14326;50.794;6.060;2024-02-21T00:06:44;57030.06;;;-142.25;100.00
26719;BME280;14326;50.794;6.060;2024-02-21T00:09:11;57030.06;;;-142.25;100.00
26719;BME280;14326;50.794;6.060;2024-02-21T00:11:38;57030.06;;;-142.25;100.00
26719;BME280;14326;50.794;6.060;2024-02-21T00:14:06;57030.06;;;-142.25;100.00
26719;BME280;14326;50.794;6.060;2024-02-21T00:16:32;57030.06;;;-142.25;100.00
26719;BME280;14326;50.794;6.060;2024-02-21T00:18:59;57030.06;;;-142.25;100.00
26719;BME280;14326;50.794;6.060;2024-02-21T00:21:25;57030.06;;;-142.25;100.00
26719;BME280;14326;50.794;6.060;2024-02-21T00:23:52;57030.06;;;-142.25;100.00
26719;BME280;14326;50.794;6.060;2024-02-21T00:26:19;57030.06;;;-142.25;100.00
26719;BME280;14326;50.794;6.060;2024-02-21T00:28:45;57030.06;;;-142.25;100.00
26719;BME280;14326;50.794;6.060;2024-02-21T00:31:13;57030.06;;;-142.25;100.00
26719;BME280;14326;50.794;6.060;2024-02-21T00:33:40;57030.06;;;-142.25;100.00
26719;BME280;14326;50.794;6.060;2024-02-21T00:36:06;57030.06;;;-142.25;100.00
26719;BME280;14326;50.794;6.060;2024-02-21T00:38:33;57030.06;;;-142.25;100.00
26719;BME280;14326;50.794;6.060;2024-02-21T00:41:00;57030.06;;;-142.25;100.00
26719;BME280;14326;50.794;6.060;2024-02-21T00:43:26;57030.06;;;-142.25;100.00
26719;BME280;14326;50.794;6.060;2024-02-21T00:45:53;57030.06;;;-142.25;100.00
26719;BME280;14326;50.794;6.060;2024-02-21T00:48:21;57030.06;;;-142.25;100.00
26719;BME280;14326;50.794;6.060;2024-02-21T00:50:47;57030.06;;;-142.25;100.00
26719;BME280;14326;50.794;6.060;2024-02-21T00:53:14;57030.06;;;-142.25;100.00
26719;BME280;14326;50.794;6.060;2024-02-21T00:55:41;57030.06;;;-142.25;100.00
26719;BME280;14326;50.794;6.060;2024-02-21T00:58:08;57030.06;;;-142.25;100.00
26719;BME280;14326;50.794;6.060;2024-02-21T01:00:35;57030.06;;;-142.25;100.00
26719;BME280;14326;50.794;6.060;2024-02-21T01:03:02;57030.06;;;-142.25;100.00
26719;BME280;14326;50.794;6.060;2024-02-21T01:05:30;57030.06;;;-142.25;100.00
26719;BME280;14326;50.794;6.060;2024-02-21T01:07:57;57030.06;;;-142.25;100.00
26719;BME280;14326;50.794;6.060;2024-02-21T01:10:23;57030.06;;;-142.25;100.00
26719;BME280;14326;50.794;6.060;2024-02-21T01:12:50;57030.06;;;-142.25;100.00
26719;BME280;14326;50.794;6.060;2024-02-21T01:15:17;57030.06;;;-142.25;100.00
26719;BME280;14326;50.794;6.060;2024-02-21T01:17:43;57030.06;;;-142.25;100.00
26719;BME280;14326;50.794;6.060;2024-02-21T01:20:11;57030.06;;;-142.25;100.00
26719;BME280;14326;50.794;6.060;2024-02-21T01:22:39;57030.06;;;-142.25;100.00
26719;BME280;14326;50.794;6.060;2024-02-21T01:25:06;57030.06;;;-142.25;100.00
26719;BME280;14326;50.794;6.060;2024-02-21T01:27:33;57030.06;;;-142.25;100.00
26719;BME280;14326;50.794;6.060;2024-02-21T01:29:59;57030.06;;;-142.25;100.00
26719;BME280;14326;50.794;6.060;2024-02-21T01:32:25;57030.06;;;-142.25;100.00
26719;BME280;14326;50.794;6.060;2024-02-21T01:34:52;57030.06;;;-142.25;100.00
26719;BME280;14326;50.794;6.060;2024-02-21T01:37:18;57030.06;;;-142.25;100.00
26719;BME280;14326;50.794;6.060;2024-02-21T01:39:46;57030.06;;;-142.25;100.00
26719;BME280;14326;50.794;6.060;2024-02-21T01:42:14;57030.06;;;-142.25;100.00
26719;BME280;14326;50.794;6.060;2024-02-21T01:44:41;57030.06;;;-142.25;100.00
26719;BME280;14326;50.794;6.060;2024-02-21T01:47:08;57030.06;;;-142.25;100.00
26719;BME280;14326;50.794;6.060;2024-02-21T01:49:35;57030.06;;;-142.25;100.00
26719;BME280;14326;50.794;6.060;2024-02-21T01:52:02;57030.06;;;-142.25;100.00
26719;BME280;14326;50.794;6.060;2024-02-21T01:54:30;57030.06;;;-142.25;100.00
26719;BME280;14326;50.794;6.060;2024-02-21T01:56:58;57030.06;;;-142.25;100.00
26719;BME280;14326;50.794;6.060;2024-02-21T01:59:25;57030.06;;;-142.25;100.00
26719;BME280;14326;50.794;6.060;2024-02-21T02:01:52;57030.06;;;-142.25;100.00
26719;BME280;14326;50.794;6.060;2024-02-21T02:04:20;57030.06;;;-142.25;100.00
26719;BME280;14326;50.794;6.060;2024-02-21T02:06:46;57030.06;;;-142.25;100.00
26719;BME280;14326;50.794;6.060;2024-02-21T02:09:13;57030.06;;;-142.25;100.00
26719;BME280;14326;50.794;6.060;2024-02-21T02:11:40;57030.06;;;-142.25;100.00
26719;BME280;14326;50.794;6.060;2024-02-21T02:14:08;57030.06;;;-142.25;100.00
26719;BME280;14326;50.794;6.060;2024-02-21T02:16:34;57030.06;;;-142.25;100.00
26719;BME280;14326;50.794;6.060;2024-02-21T02:19:01;57030.06;;;-142.25;100.00
26719;BME280;14326;50.794;6.060;2024-02-21T02:21:30;57030.06;;;-142.25;100.00
26719;BME280;14326;50.794;6.060;2024-02-21T02:24:00;57030.06;;;-142.25;100.00
26719;BME280;14326;50.794;6.060;2024-02-21T02:26:56;100232.69;;;8.86;100.00
26719;BME280;14326;50.794;6.060;2024-02-21T02:29:23;100228.97;;;8.80;100.00
26719;BME280;14326;50.794;6.060;2024-02-21T02:31:49;100222.53;;;8.70;100.00
26719;BME280;14326;50.794;6.060;2024-02-21T02:34:16;100236.72;;;8.72;100.00
26719;BME280;14326;50.794;6.060;2024-02-21T02:36:43;100227.06;;;8.74;100.00
26719;BME280;14326;50.794;6.060;2024-02-21T02:39:09;100220.94;;;8.77;100.00
26719;BME280;14326;50.794;6.060;2024-02-21T02:41:36;100220.00;;;8.75;100.00
26719;BME280;14326;50.794;6.060;2024-02-21T02:44:04;100212.75;;;8.68;100.00
26719;BME280;14326;50.794;6.060;2024-02-21T02:46:31;100202.97;;;8.67;100.00
26719;BME280;14326;50.794;6.060;2024-02-21T02:48:57;100202.25;;;8.72;100.00
26719;BME280;14326;50.794;6.060;2024-02-21T02:51:24;100194.34;;;8.74;100.00
26719;BME280;14326;50.794;6.060;2024-02-21T02:53:50;100189.66;;;8.63;100.00
26719;BME280;14326;50.794;6.060;2024-02-21T02:56:17;100186.09;;;8.63;100.00
26719;BME280;14326;50.794;6.060;2024-02-21T02:58:44;100187.91;;;8.64;100.00
26719;BME280;14326;50.794;6.060;2024-02-21T03:01:12;100191.47;;;8.65;100.00
26719;BME280;14326;50.794;6.060;2024-02-21T03:03:39;100189.72;;;8.65;100.00
26719;BME280;14326;50.794;6.060;2024-02-21T03:06:05;100181.59;;;8.60;100.00
26719;BME280;14326;50.794;6.060;2024-02-21T03:08:32;100171.03;;;8.62;100.00
26719;BME280;14326;50.794;6.060;2024-02-21T03:10:59;100164.91;;;8.63;100.00
26719;BME280;14326;50.794;6.060;2024-02-21T03:13:26;100155.94;;;8.58;100.00
26719;BME280;14326;50.794;6.060;2024-02-21T03:15:52;100160.34;;;8.57;100.00
26719;BME280;14326;50.794;6.060;2024-02-21T03:18:20;100157.75;;;8.60;100.00
26719;BME280;14326;50.794;6.060;2024-02-21T03:20:47;100169.50;;;8.70;100.00
26719;BME280;14326;50.794;6.060;2024-02-21T03:23:13;100166.66;;;8.62;100.00
26719;BME280;14326;50.794;6.060;2024-02-21T03:25:40;100161.53;;;8.70;100.00
26719;BME280;14326;50.794;6.060;2024-02-21T03:28:07;100166.75;;;8.67;100.00
26719;BME280;14326;50.794;6.060;2024-02-21T03:30:33;100169.50;;;8.70;100.00
26719;BME280;14326;50.794;6.060;2024-02-21T03:33:00;100159.75;;;8.69;100.00
26719;BME280;14326;50.794;6.060;2024-02-21T03:35:28;100159.66;;;8.66;100.00
26719;BME280;14326;50.794;6.060;2024-02-21T03:37:55;100163.19;;;8.65;100.00
26719;BME280;14326;50.794;6.060;2024-02-21T03:40:22;100161.38;;;8.64;100.00
26719;BME280;14326;50.794;6.060;2024-02-21T03:42:48;100150.75;;;8.62;100.00
26719;BME280;14326;50.794;6.060;2024-02-21T03:45:15;100145.38;;;8.59;100.00
26719;BME280;14326;50.794;6.060;2024-02-21T03:47:41;100150.78;;;8.64;100.00
26719;BME280;14326;50.794;6.060;2024-02-21T03:50:08;100138.44;;;8.66;100.00
26719;BME280;14326;50.794;6.060;2024-02-21T03:52:36;100138.28;;;8.60;100.00
26719;BME280;14326;50.794;6.060;2024-02-21T03:55:03;100135.78;;;8.66;100.00
26719;BME280;14326;50.794;6.060;2024-02-21T03:57:30;100137.59;;;8.67;100.00
26719;BME280;14326;50.794;6.060;2024-02-21T03:59:57;100142.88;;;8.66;100.00
26719;BME280;14326;50.794;6.060;2024-02-21T04:02:23;100133.22;;;8.69;100.00
26719;BME280;14326;50.794;6.060;2024-02-21T04:04:50;100115.66;;;8.74;100.00
26719;BME280;14326;50.794;6.060;2024-02-21T04:07:16;100133.22;;;8.69;100.00
26719;BME280;14326;50.794;6.060;2024-02-21T04:09:44;100128.78;;;8.68;100.00
26719;BME280;14326;50.794;6.060;2024-02-21T04:12:11;100128.81;;;8.70;100.00
26719;BME280;14326;50.794;6.060;2024-02-21T04:14:38;100120.94;;;8.73;100.00
26719;BME280;14326;50.794;6.060;2024-02-21T04:17:05;100124.47;;;8.73;100.00
26719;BME280;14326;50.794;6.060;2024-02-21T04:19:31;100121.88;;;8.75;100.00
26719;BME280;14326;50.794;6.060;2024-02-21T04:21:59;100116.47;;;8.70;100.00
26719;BME280;14326;50.794;6.060;2024-02-21T04:24:25;100116.63;;;8.76;100.00
26719;BME280;14326;50.794;6.060;2024-02-21T04:26:53;100115.47;;;8.67;100.00
26719;BME280;14326;50.794;6.060;2024-02-21T04:29:20;100105.00;;;8.71;100.00
26719;BME280;14326;50.794;6.060;2024-02-21T04:31:46;100105.75;;;8.67;100.00
26719;BME280;14326;50.794;6.060;2024-02-21T04:34:13;100121.66;;;8.66;100.00
26719;BME280;14326;50.794;6.060;2024-02-21T04:36:40;100115.53;;;8.68;100.00
26719;BME280;14326;50.794;6.060;2024-02-21T04:39:06;100118.25;;;8.71;100.00
26719;BME280;14326;50.794;6.060;2024-02-21T04:41:33;100111.13;;;8.69;100.00
26719;BME280;14326;50.794;6.060;2024-02-21T04:44:01;100107.59;;;8.70;100.00
26719;BME280;14326;50.794;6.060;2024-02-21T04:46:29;100108.56;;;8.73;100.00
26719;BME280;14326;50.794;6.060;2024-02-21T04:48:55;100107.75;;;8.76;100.00
26719;BME280;14326;50.794;6.060;2024-02-21T04:51:22;100105.81;;;8.69;100.00
26719;BME280;14326;50.794;6.060;2024-02-21T04:53:49;100098.84;;;8.74;100.00
26719;BME280;14326;50.794;6.060;2024-02-21T04:56:15;100097.06;;;8.73;100.00
26719;BME280;14326;50.794;6.060;2024-02-21T04:58:42;100095.31;;;8.73;100.00
26719;BME280;14326;50.794;6.060;2024-02-21T05:01:10;100093.50;;;8.71;100.00
26719;BME280;14326;50.794;6.060;2024-02-21T05:03:36;100089.91;;;8.69;100.00
26719;BME280;14326;50.794;6.060;2024-02-21T05:06:04;100091.75;;;8.71;100.00
26719;BME280;14326;50.794;6.060;2024-02-21T05:08:31;100093.50;;;8.71;100.00
26719;BME280;14326;50.794;6.060;2024-02-21T05:10:58;100092.44;;;8.64;100.00
26719;BME280;14326;50.794;6.060;2024-02-21T05:13:25;100085.56;;;8.72;100.00
26719;BME280;14326;50.794;6.060;2024-02-21T05:15:51;100084.75;;;8.75;100.00
26719;BME280;14326;50.794;6.060;2024-02-21T05:18:19;100091.59;;;8.67;100.00
26719;BME280;14326;50.794;6.060;2024-02-21T05:20:46;100091.53;;;8.63;100.00
26719;BME280;14326;50.794;6.060;2024-02-21T05:23:12;100084.44;;;8.62;100.00
26719;BME280;14326;50.794;6.060;2024-02-21T05:25:39;100071.13;;;8.61;100.00
26719;BME280;14326;50.794;6.060;2024-02-21T05:28:05;100072.84;;;8.57;100.00
26719;BME280;14326;50.794;6.060;2024-02-21T05:30:32;100068.53;;;8.62;100.00
26719;BME280;14326;50.794;6.060;2024-02-21T05:32:59;100064.13;;;8.63;100.00
26719;BME280;14326;50.794;6.060;2024-02-21T05:35:28;100055.09;;;8.55;100.00
26719;BME280;14326;50.794;6.060;2024-02-21T05:37:55;100062.34;;;8.62;100.00
26719;BME280;14326;50.794;6.060;2024-02-21T05:40:21;100061.38;;;8.58;100.00
26719;BME280;14326;50.794;6.060;2024-02-21T05:42:48;100057.97;;;8.64;100.00
26719;BME280;14326;50.794;6.060;2024-02-21T05:45:16;100059.78;;;8.65;100.00
26719;BME280;14326;50.794;6.060;2024-02-21T05:47:43;100051.78;;;8.63;100.00
26719;BME280;14326;50.794;6.060;2024-02-21T05:50:10;100041.13;;;8.62;100.00
26719;BME280;14326;50.794;6.060;2024-02-21T05:52:38;100037.56;;;8.61;100.00
26719;BME280;14326;50.794;6.060;2024-02-21T05:55:06;100043.66;;;8.57;100.00
26719;BME280;14326;50.794;6.060;2024-02-21T05:57:34;100036.41;;;8.50;100.00
26719;BME280;14326;50.794;6.060;2024-02-21T06:00:03;100025.91;;;8.53;100.00
26719;BME280;14326;50.794;6.060;2024-02-21T06:02:30;100036.66;;;8.59;100.00
26719;BME280;14326;50.794;6.060;2024-02-21T06:04:57;100035.78;;;8.60;100.00
26719;BME280;14326;50.794;6.060;2024-02-21T06:07:23;100043.88;;;8.67;100.00
26719;BME280;14326;50.794;6.060;2024-02-21T06:09:51;100041.13;;;8.62;100.00
26719;BME280;14326;50.794;6.060;2024-02-21T06:12:18;100037.41;;;8.54;100.00
26719;BME280;14326;50.794;6.060;2024-02-21T06:14:44;100029.31;;;8.49;100.00
26719;BME280;14326;50.794;6.060;2024-02-21T06:17:11;100027.47;;;8.45;100.00
26719;BME280;14326;50.794;6.060;2024-02-21T06:19:39;100034.63;;;8.48;100.00
26719;BME280;14326;50.794;6.060;2024-02-21T06:22:06;100038.06;;;8.45;100.00
26719;BME280;14326;50.794;6.060;2024-02-21T06:24:33;100042.41;;;8.42;100.00
26719;BME280;14326;50.794;6.060;2024-02-21T06:27:00;100045.22;;;8.48;100.00
26719;BME280;14326;50.794;6.060;2024-02-21T06:29:26;100031.03;;;8.46;100.00
26719;BME280;14326;50.794;6.060;2024-02-21T06:31:53;100029.22;;;8.45;100.00
26719;BME280;14326;50.794;6.060;2024-02-21T06:34:19;100026.66;;;8.49;100.00
26719;BME280;14326;50.794;6.060;2024-02-21T06:36:46;100025.81;;;8.50;100.00
26719;BME280;14326;50.794;6.060;2024-02-21T06:39:13;100021.41;;;8.51;100.00
26719;BME280;14326;50.794;6.060;2024-02-21T06:41:39;100021.28;;;8.45;100.00
26719;BME280;14326;50.794;6.060;2024-02-21T06:44:07;100018.72;;;8.48;100.00
26719;BME280;14326;50.794;6.060;2024-02-21T06:46:34;100014.16;;;8.44;100.00
26719;BME280;14326;50.794;6.060;2024-02-21T06:49:02;100010.59;;;8.42;100.00
26719;BME280;14326;50.794;6.060;2024-02-21T06:51:29;100010.56;;;8.40;100.00
26719;BME280;14326;50.794;6.060;2024-02-21T06:53:56;100011.34;;;8.36;100.00
26719;BME280;14326;50.794;6.060;2024-02-21T06:56:24;100015.75;;;8.36;100.00
26719;BME280;14326;50.794;6.060;2024-02-21T06:58:53;100010.47;;;8.37;100.00
26719;BME280;14326;50.794;6.060;2024-02-21T07:01:21;100008.97;;;8.47;100.00
26719;BME280;14326;50.794;6.060;2024-02-21T07:03:48;100001.84;;;8.46;100.00
26719;BME280;14326;50.794;6.060;2024-02-21T07:06:15;100007.06;;;8.43;100.00
26719;BME280;14326;50.794;6.060;2024-02-21T07:08:41;100011.53;;;8.44;100.00
26719;BME280;14326;50.794;6.060;2024-02-21T07:11:08;100027.41;;;8.42;100.00
26719;BME280;14326;50.794;6.060;2024-02-21T07:13:34;100022.13;;;8.44;100.00
26719;BME280;14326;50.794;6.060;2024-02-21T07:16:01;100016.81;;;8.42;100.00
26719;BME280;14326;50.794;6.060;2024-02-21T07:18:29;100023.81;;;8.40;100.00
26719;BME280;14326;50.794;6.060;2024-02-21T07:20:55;100013.16;;;8.39;100.00
26719;BME280;14326;50.794;6.060;2024-02-21T07:23:22;100025.56;;;8.40;100.00
26719;BME280;14326;50.794;6.060;2024-02-21T07:25:49;100018.72;;;8.48;100.00
26719;BME280;14326;50.794;6.060;2024-02-21T07:28:15;100154.44;;;8.44;100.00
26719;BME280;14326;50.794;6.060;2024-02-21T07:30:42;100021.34;;;8.48;100.00
26719;BME280;14326;50.794;6.060;2024-02-21T07:33:09;100016.13;;;8.51;100.00
26719;BME280;14326;50.794;6.060;2024-02-21T07:35:37;100008.13;;;8.49;100.00
26719;BME280;14326;50.794;6.060;2024-02-21T07:38:05;100003.56;;;8.44;100.00
26719;BME280;14326;50.794;6.060;2024-02-21T07:40:55;100002.59;;;8.40;100.00
26719;BME280;14326;50.794;6.060;2024-02-21T07:43:21;99997.31;;;8.40;100.00
26719;BME280;14326;50.794;6.060;2024-02-21T07:45:48;99986.72;;;8.40;100.00
26719;BME280;14326;50.794;6.060;2024-02-21T07:48:15;99993.91;;;8.46;100.00
26719;BME280;14326;50.794;6.060;2024-02-21T07:50:42;99996.59;;;8.49;100.00
26719;BME280;14326;50.794;6.060;2024-02-21T07:53:08;99983.50;;;8.53;100.00
26719;BME280;14326;50.794;6.060;2024-02-21T07:55:35;99980.84;;;8.53;100.00
26719;BME280;14326;50.794;6.060;2024-02-21T07:58:03;99977.34;;;8.56;100.00
26719;BME280;14326;50.794;6.060;2024-02-21T08:00:30;99977.44;;;8.59;100.00
26719;BME280;14326;50.794;6.060;2024-02-21T08:02:56;99976.59;;;8.61;100.00
26719;BME280;14326;50.794;6.060;2024-02-21T08:05:23;99967.72;;;8.59;100.00
26719;BME280;14326;50.794;6.060;2024-02-21T08:07:50;99964.31;;;8.65;100.00
26719;BME280;14326;50.794;6.060;2024-02-21T08:10:16;99963.50;;;8.69;100.00
26719;BME280;14326;50.794;6.060;2024-02-21T08:12:43;99958.28;;;8.74;100.00
26719;BME280;14326;50.794;6.060;2024-02-21T08:15:11;99945.25;;;8.84;100.00
26719;BME280;14326;50.794;6.060;2024-02-21T08:17:37;99936.41;;;8.82;100.00
26719;BME280;14326;50.794;6.060;2024-02-21T08:20:05;99929.38;;;8.86;100.00
26719;BME280;14326;50.794;6.060;2024-02-21T08:22:31;99932.06;;;8.87;100.00
26719;BME280;14326;50.794;6.060;2024-02-21T08:24:58;99922.28;;;8.85;100.00
26719;BME280;14326;50.794;6.060;2024-02-21T08:27:25;99916.97;;;8.85;100.00
26719;BME280;14326;50.794;6.060;2024-02-21T08:29:51;99918.72;;;8.83;100.00
26719;BME280;14326;50.794;6.060;2024-02-21T08:32:19;99918.00;;;8.91;100.00
26719;BME280;14326;50.794;6.060;2024-02-21T08:34:46;99899.31;;;8.85;100.00
26719;BME280;14326;50.794;6.060;2024-02-21T08:37:12;99902.94;;;8.90;100.00
26719;BME280;14326;50.794;6.060;2024-02-21T08:39:39;99903.94;;;8.95;100.00
26719;BME280;14326;50.794;6.060;2024-02-21T08:42:06;99897.81;;;8.98;100.00
26719;BME280;14326;50.794;6.060;2024-02-21T08:44:32;99882.09;;;9.09;100.00
26719;BME280;14326;50.794;6.060;2024-02-21T08:46:59;99877.69;;;9.09;100.00
26719;BME280;14326;50.794;6.060;2024-02-21T08:49:31;99870.56;;;9.07;100.00
26719;BME280;14326;50.794;6.060;2024-02-21T08:51:58;99868.81;;;9.09;100.00
26719;BME280;14326;50.794;6.060;2024-02-21T08:54:25;99865.25;;;9.07;100.00
26719;BME280;14326;50.794;6.060;2024-02-21T08:56:52;99856.53;;;9.12;100.00
26719;BME280;14326;50.794;6.060;2024-02-21T08:59:18;99842.28;;;9.09;99.66
26719;BME280;14326;50.794;6.060;2024-02-21T09:01:45;99848.38;;;9.03;99.86
26719;BME280;14326;50.794;6.060;2024-02-21T09:04:12;99840.78;;;9.23;99.46
26719;BME280;14326;50.794;6.060;2024-02-21T09:06:40;99830.91;;;9.16;99.85
26719;BME280;14326;50.794;6.060;2024-02-21T09:09:07;99827.59;;;9.27;100.00
26719;BME280;14326;50.794;6.060;2024-02-21T09:11:35;99817.91;;;9.31;99.74
26719;BME280;14326;50.794;6.060;2024-02-21T09:14:01;99818.00;;;9.37;99.01
26719;BME280;14326;50.794;6.060;2024-02-21T09:16:30;99821.56;;;9.37;99.43
26719;BME280;14326;50.794;6.060;2024-02-21T09:18:57;99812.69;;;9.37;99.30
26719;BME280;14326;50.794;6.060;2024-02-21T09:21:23;99804.16;;;9.53;98.58
26719;BME280;14326;50.794;6.060;2024-02-21T09:23:51;99790.88;;;9.53;99.07
26719;BME280;14326;50.794;6.060;2024-02-21T09:26:18;99802.34;;;9.52;98.55
26719;BME280;14326;50.794;6.060;2024-02-21T09:28:45;99795.22;;;9.48;98.77
26719;BME280;14326;50.794;6.060;2024-02-21T09:31:11;99782.91;;;9.53;98.19
26719;BME280;14326;50.794;6.060;2024-02-21T09:33:38;99789.19;;;9.58;97.83
26719;BME280;14326;50.794;6.060;2024-02-21T09:36:06;99785.59;;;9.56;98.16
26719;BME280;14326;50.794;6.060;2024-02-21T09:38:32;99784.69;;;9.54;98.11
26719;BME280;14326;50.794;6.060;2024-02-21T09:41:18;99783.09;;;9.65;97.51
26719;BME280;14326;50.794;6.060;2024-02-21T09:43:45;99776.00;;;9.64;97.83
26719;BME280;14326;50.794;6.060;2024-02-21T09:46:16;99777.72;;;9.62;97.12
26719;BME280;14326;50.794;6.060;2024-02-21T09:48:54;99783.28;;;9.79;97.05
26719;BME280;14326;50.794;6.060;2024-02-21T09:51:27;99782.38;;;9.77;96.94
26719;BME280;14326;50.794;6.060;2024-02-21T09:53:56;99770.97;;;9.82;96.51
26719;BME280;14326;50.794;6.060;2024-02-21T09:56:25;99776.22;;;9.79;96.58
26719;BME280;14326;50.794;6.060;2024-02-21T09:58:51;99765.69;;;9.85;97.40
26719;BME280;14326;50.794;6.060;2024-02-21T10:01:18;99771.88;;;9.86;96.31
26719;BME280;14326;50.794;6.060;2024-02-21T10:03:45;99763.00;;;9.82;96.87
26719;BME280;14326;50.794;6.060;2024-02-21T10:06:11;99758.63;;;9.88;97.11
26719;BME280;14326;50.794;6.060;2024-02-21T10:08:38;99756.81;;;9.83;96.78
26719;BME280;14326;50.794;6.060;2024-02-21T10:11:04;99757.78;;;9.89;96.83
26719;BME280;14326;50.794;6.060;2024-02-21T10:13:35;99754.28;;;9.96;97.05
26719;BME280;14326;50.794;6.060;2024-02-21T10:16:04;99748.25;;;10.06;97.33
26719;BME280;14326;50.794;6.060;2024-02-21T10:18:31;99744.81;;;10.13;96.51
26719;BME280;14326;50.794;6.060;2024-02-21T10:21:02;99736.03;;;10.17;96.23
26719;BME280;14326;50.794;6.060;2024-02-21T10:23:29;99718.34;;;10.19;96.16
26719;BME280;14326;50.794;6.060;2024-02-21T10:26:04;99713.97;;;10.25;96.48
26719;BME280;14326;50.794;6.060;2024-02-21T10:28:31;99716.59;;;10.22;94.88
26719;BME280;14326;50.794;6.060;2024-02-21T10:30:59;99709.50;;;10.21;95.62
26719;BME280;14326;50.794;6.060;2024-02-21T10:33:26;99690.94;;;10.24;95.49
26719;BME280;14326;50.794;6.060;2024-02-21T10:35:53;99686.66;;;10.39;95.59
26719;BME280;14326;50.794;6.060;2024-02-21T10:38:20;99675.16;;;10.41;94.81
26719;BME280;14326;50.794;6.060;2024-02-21T10:40:46;99670.03;;;10.59;94.74
26719;BME280;14326;50.794;6.060;2024-02-21T10:43:15;99663.81;;;10.59;94.79
26719;BME280;14326;50.794;6.060;2024-02-21T10:45:44;99659.34;;;10.56;93.38
26719;BME280;14326;50.794;6.060;2024-02-21T10:48:15;99661.22;;;10.66;92.71
26719;BME280;14326;50.794;6.060;2024-02-21T10:50:56;99649.72;;;10.69;92.66
26719;BME280;14326;50.794;6.060;2024-02-21T10:53:29;99611.56;;;10.67;92.06
26719;BME280;14326;50.794;6.060;2024-02-21T10:56:08;99631.13;;;10.74;92.85
26719;BME280;14326;50.794;6.060;2024-02-21T10:58:38;99607.25;;;10.77;92.63
26719;BME280;14326;50.794;6.060;2024-02-21T11:01:05;99603.63;;;10.73;91.61
26719;BME280;14326;50.794;6.060;2024-02-21T11:03:35;99596.59;;;10.77;92.89
26719;BME280;14326;50.794;6.060;2024-02-21T11:11:30;99584.22;;;10.82;92.24
26719;BME280;14326;50.794;6.060;2024-02-21T11:19:28;99532.88;;;10.98;90.87
26719;BME280;14326;50.794;6.060;2024-02-21T11:37:01;99466.34;;;10.95;88.72
26719;BME280;14326;50.794;6.060;2024-02-21T11:39:35;99456.56;;;10.94;89.20
26719;BME280;14326;50.794;6.060;2024-02-21T11:42:16;99445.03;;;10.93;89.45
26719;BME280;14326;50.794;6.060;2024-02-21T11:45:01;99421.03;;;10.86;88.66
26719;BME280;14326;50.794;6.060;2024-02-21T11:47:30;99383.78;;;10.81;88.70
26719;BME280;14326;50.794;6.060;2024-02-21T11:50:03;99389.06;;;10.74;87.77
26719;BME280;14326;50.794;6.060;2024-02-21T11:53:00;99383.81;;;10.89;89.47
26719;BME280;14326;50.794;6.060;2024-02-21T11:55:43;99383.81;;;10.96;88.46
26719;BME280;14326;50.794;6.060;2024-02-21T12:01:19;99454.03;;;11.23;87.07
26719;BME280;14326;50.794;6.060;2024-02-21T12:03:46;99457.63;;;11.35;86.08
26719;BME280;14326;50.794;6.060;2024-02-21T12:06:16;99419.47;;;11.39;86.76
26719;BME280;14326;50.794;6.060;2024-02-21T12:08:50;99416.78;;;11.38;86.09
26719;BME280;14326;50.794;6.060;2024-02-21T12:11:22;99426.59;;;11.46;85.74
26719;BME280;14326;50.794;6.060;2024-02-21T12:14:03;99407.97;;;11.57;84.71
26719;BME280;14326;50.794;6.060;2024-02-21T12:16:33;99419.53;;;11.64;84.64
26719;BME280;14326;50.794;6.060;2024-02-21T12:19:02;99413.31;;;11.69;84.24
26719;BME280;14326;50.794;6.060;2024-02-21T12:21:34;99394.69;;;11.75;83.53
26719;BME280;14326;50.794;6.060;2024-02-21T12:24:21;99385.81;;;11.87;82.92
26719;BME280;14326;50.794;6.060;2024-02-21T12:27:00;99391.16;;;11.93;82.99
26719;BME280;14326;50.794;6.060;2024-02-21T12:29:29;99378.72;;;11.95;81.73
26719;BME280;14326;50.794;6.060;2024-02-21T12:32:00;99372.47;;;12.04;81.12
26719;BME280;14326;50.794;6.060;2024-02-21T12:34:31;99381.38;;;12.13;80.35
26719;BME280;14326;50.794;6.060;2024-02-21T12:37:13;99379.56;;;12.27;79.16
26719;BME280;14326;50.794;6.060;2024-02-21T12:39:42;99367.13;;;12.25;78.87
26719;BME280;14326;50.794;6.060;2024-02-21T12:42:11;99353.81;;;12.23;77.82
26719;BME280;14326;50.794;6.060;2024-02-21T12:44:49;99360.00;;;12.36;77.83
26719;BME280;14326;50.794;6.060;2024-02-21T12:47:17;99346.66;;;12.41;77.02
26719;BME280;14326;50.794;6.060;2024-02-21T12:49:49;99327.94;;;12.54;75.33
26719;BME280;14326;50.794;6.060;2024-02-21T12:52:22;99336.81;;;12.55;74.66
26719;BME280;14326;50.794;6.060;2024-02-21T12:54:57;99332.34;;;12.55;74.33
26719;BME280;14326;50.794;6.060;2024-02-21T12:57:26;99324.41;;;12.43;74.99
26719;BME280;14326;50.794;6.060;2024-02-21T12:59:54;99332.41;;;12.48;75.16
26719;BME280;14326;50.794;6.060;2024-02-21T13:02:22;99316.41;;;12.48;75.71
26719;BME280;14326;50.794;6.060;2024-02-21T13:04:50;99317.31;;;12.41;75.42
26719;BME280;14326;50.794;6.060;2024-02-21T13:07:17;99320.91;;;12.30;75.12
26719;BME280;14326;50.794;6.060;2024-02-21T13:09:44;99306.69;;;12.28;74.93
26719;BME280;14326;50.794;6.060;2024-02-21T13:12:14;99296.00;;;12.35;75.65
26719;BME280;14326;50.794;6.060;2024-02-21T13:14:42;99288.91;;;12.30;76.77
26719;BME280;14326;50.794;6.060;2024-02-21T13:17:21;99286.25;;;12.21;75.63
26719;BME280;14326;50.794;6.060;2024-02-21T13:20:02;99273.81;;;12.08;75.47
26719;BME280;14326;50.794;6.060;2024-02-21T13:22:57;99288.06;;;12.04;77.58
26719;BME280;14326;50.794;6.060;2024-02-21T13:25:23;99290.75;;;11.94;76.12